Time;durP1;ratioP1;P1;durP2;ratioP2;P2;SDS_P1;SDS_P2;PMS_P1;PMS_P2;Temp;Humidity;BMP_temperature;BMP_pressure;BME280_temperature;BME280_humidity;BME280_pressure;Samples;Min_cycle;Max_cycle;Signal;HPM_P1;HPM_P2
2022/08/22 00:02:26;;;;;;;15.03;13.53;;;;;;;-143.84;88.59;45062.41;5111904;28;20442;-78
2022/08/22 00:05:01;;;;;;;13.67;12.40;;;;;;;-143.84;88.78;45054.78;5111758;28;20447;-78
2022/08/22 00:07:40;;;;;;;14.80;13.40;;;;;;;-143.84;88.84;45071.91;5111663;28;20434;-78
2022/08/22 00:10:14;;;;;;;14.80;13.40;;;;;;;-143.84;88.99;45064.31;5112040;28;20431;-78
2022/08/22 00:12:49;;;;;;;19.10;13.00;;;;;;;-143.84;89.09;45071.91;5111557;28;20523;-79
2022/08/22 00:15:23;;;;;;;16.67;12.43;;;;;;;-143.84;89.14;45058.59;5111853;28;20438;-79
2022/08/22 00:17:59;;;;;;;14.13;12.63;;;;;;;-143.84;88.79;45068.13;5111770;28;20447;-79
2022/08/22 00:20:33;;;;;;;13.37;12.03;;;;;;;-143.84;88.77;45071.91;5111658;28;20493;-79
2022/08/22 00:23:11;;;;;;;14.07;12.77;;;;;;;-143.84;89.20;45056.69;5111935;27;20482;-79
2022/08/22 00:25:59;;;;;;;12.67;11.53;;;;;;;-143.84;88.79;45075.72;5110699;28;20909;-74
2022/08/22 00:28:32;;;;;;;13.53;12.43;;;;;;;-143.84;89.09;45066.22;5109260;28;20447;-74
2022/08/22 00:31:09;;;;;;;14.73;12.17;;;;;;;-143.84;89.06;45075.72;5109622;28;20496;-74
2022/08/22 00:33:45;;;;;;;13.93;12.43;;;;;;;-143.84;89.30;45068.13;5108054;28;21433;-74
2022/08/22 00:36:23;;;;;;;20.00;14.30;;;;;;;-143.84;89.24;45068.13;5109243;28;20434;-74
2022/08/22 00:38:59;;;;;;;14.47;13.10;;;;;;;-143.84;89.44;45100.47;5109450;28;20435;-74
2022/08/22 00:41:44;;;;;;;15.63;13.50;;;;;;;-143.84;89.55;45081.44;5111792;28;20526;-74
2022/08/22 00:44:50;;;;;;;15.30;13.80;;;;;;;-143.84;89.62;45075.72;5113452;27;21307;-74
2022/08/22 00:47:33;;;;;;;16.23;13.40;;;;;;;-143.84;89.83;45066.22;5113229;28;20956;-74
2022/08/22 00:50:26;;;;;;;16.33;13.87;;;;;;;-143.84;90.06;45064.31;5113332;28;20435;-74
2022/08/22 00:53:18;;;;;;;21.43;14.10;;;;;;;-143.84;90.49;45064.31;5113369;28;20437;-74
2022/08/22 00:56:03;;;;;;;19.03;14.90;;;;;;;-143.84;90.11;45052.88;5112951;28;20964;-74
2022/08/22 00:58:59;;;;;;;16.30;13.67;;;;;;;-143.84;90.12;45087.16;5113009;27;20800;-74
2022/08/22 01:01:32;;;;;;;14.60;13.30;;;;;;;-143.84;89.91;45070.00;5113269;27;20882;-74
2022/08/22 01:04:22;;;;;;;16.27;13.77;;;;;;;-143.84;90.06;45075.72;5113119;28;20446;-74
2022/08/22 01:07:03;;;;;;;19.13;14.70;;;;;;;-143.84;89.80;45070.00;5113169;28;20446;-74
2022/08/22 01:09:47;;;;;;;18.57;14.50;;;;;;;-143.84;89.62;45075.72;5113056;27;20920;-74
2022/08/22 01:12:49;;;;;;;15.13;13.73;;;;;;;-143.84;89.71;45081.44;5113057;28;20442;-74
2022/08/22 01:15:24;;;;;;;19.13;15.07;;;;;;;-143.84;89.71;45073.81;5107525;28;20779;-74
2022/08/22 01:18:26;;;;;;;19.77;13.80;;;;;;;-143.84;89.91;45071.91;5113179;28;20430;-74
2022/08/22 01:21:34;;;;;;;16.97;14.70;;;;;;;-143.84;89.95;45079.53;5110404;28;20485;-74
2022/08/22 01:28:06;;;;;;;17.53;15.40;;;;;;;-143.84;90.36;45085.25;5071482;27;20494;-74
2022/08/22 01:30:59;;;;;;;17.43;14.57;;;;;;;-143.84;90.26;45094.78;5098858;28;20881;-74
2022/08/22 01:34:09;;;;;;;16.03;14.20;;;;;;;-143.84;90.40;45079.53;5112735;28;20547;-74
2022/08/22 01:37:18;;;;;;;16.83;15.17;;;;;;;-143.84;90.55;45087.16;5112645;28;20504;-74
2022/08/22 01:40:35;;;;;;;16.07;14.50;;;;;;;-143.84;90.86;45085.25;5112284;28;20460;-74
2022/08/22 01:43:10;;;;;;;14.90;13.40;;;;;;;-143.84;90.91;45096.66;5112008;27;20503;-74
2022/08/22 01:45:57;;;;;;;15.93;14.43;;;;;;;-143.84;91.04;45073.81;5111175;28;20495;-74
2022/08/22 01:48:34;;;;;;;15.90;14.40;;;;;;;-143.84;91.09;45071.91;5110694;28;20515;-74
2022/08/22 01:51:13;;;;;;;14.67;13.30;;;;;;;-143.84;91.26;45096.66;5111589;28;20443;-74
2022/08/22 01:53:48;;;;;;;15.20;13.70;;;;;;;-143.84;91.16;45081.44;5111419;28;20513;-74
2022/08/22 01:56:18;;;;;;;15.23;13.57;;;;;;;-143.84;91.15;45073.81;5111880;28;20861;-74
2022/08/22 01:58:58;;;;;;;15.50;14.17;;;;;;;-143.84;91.22;45054.78;5111974;28;20438;-74
2022/08/22 02:01:37;;;;;;;18.23;14.50;;;;;;;-143.84;91.52;45100.47;5112059;28;20482;-74
2022/08/22 02:04:09;;;;;;;17.43;14.50;;;;;;;-143.84;91.77;45062.41;5112121;28;20502;-74
2022/08/22 02:06:45;;;;;;;16.13;14.10;;;;;;;-143.84;91.77;45079.53;5111989;28;20916;-74
2022/08/22 02:09:23;;;;;;;19.70;14.70;;;;;;;-143.84;91.87;45068.13;5111825;28;20434;-74
2022/08/22 02:11:55;;;;;;;16.13;14.60;;;;;;;-143.84;91.78;45083.34;5111976;27;20507;-74
2022/08/22 02:14:36;;;;;;;16.80;15.00;;;;;;;-143.84;91.67;45066.22;5112165;28;20443;-74
2022/08/22 02:17:14;;;;;;;17.37;15.57;;;;;;;-143.84;91.70;45089.06;5111539;28;20467;-74
2022/08/22 02:19:50;;;;;;;17.03;15.27;;;;;;;-143.84;91.66;45070.00;5111789;27;20496;-74
2022/08/22 02:22:35;;;;;;;16.77;14.60;;;;;;;-143.84;91.58;45083.34;5111535;28;20562;-74
2022/08/22 02:25:10;;;;;;;15.70;14.30;;;;;;;-143.84;91.81;45071.91;5111374;28;20562;-74
2022/08/22 02:27:49;;;;;;;20.40;15.33;;;;;;;-143.84;91.78;45083.34;5111706;28;20450;-74
2022/08/22 02:30:20;;;;;;;15.93;14.53;;;;;;;-143.84;91.83;45089.06;5111446;28;21271;-74
2022/08/22 02:33:05;;;;;;;18.07;16.00;;;;;;;-143.84;91.74;45104.28;5110228;28;20459;-74
2022/08/22 02:35:51;;;;;;;18.17;16.27;;;;;;;-143.84;92.07;45087.16;5111277;28;20484;-74
2022/08/22 02:38:28;;;;;;;16.90;14.20;;;;;;;-143.84;91.92;45089.06;5111243;28;20883;-74
2022/08/22 02:41:06;;;;;;;16.47;14.97;;;;;;;-143.84;91.94;45098.56;5111329;28;20540;-74
2022/08/22 02:43:42;;;;;;;17.13;15.50;;;;;;;-143.84;91.95;45070.00;5111210;28;20492;-74
2022/08/22 02:46:17;;;;;;;21.80;16.97;;;;;;;-143.84;91.88;45089.06;5111194;28;20533;-74
2022/08/22 02:48:52;;;;;;;17.27;15.63;;;;;;;-143.84;91.43;45092.88;5111123;28;20848;-74
2022/08/22 02:51:31;;;;;;;15.57;14.17;;;;;;;-143.84;91.32;45073.81;5110971;28;20438;-74
2022/08/22 02:54:09;;;;;;;14.70;13.20;;;;;;;-143.84;91.37;45079.53;5111254;28;20500;-74
2022/08/22 02:56:43;;;;;;;14.40;13.20;;;;;;;-143.84;91.52;45085.25;5111001;27;20439;-74
2022/08/22 02:59:22;;;;;;;15.40;13.93;;;;;;;-143.84;91.43;45071.91;5111161;28;20439;-74
2022/08/22 03:01:51;;;;;;;13.97;12.73;;;;;;;-143.84;91.63;45085.25;5111066;28;20987;-75
2022/08/22 03:04:27;;;;;;;15.73;14.33;;;;;;;-143.84;91.22;45075.72;5110562;28;20880;-74
2022/08/22 03:07:14;;;;;;;15.70;14.30;;;;;;;-143.84;91.00;45089.06;5110560;28;20443;-74
2022/08/22 03:09:48;;;;;;;14.73;13.47;;;;;;;-143.84;90.88;45073.81;5110857;28;20488;-74
2022/08/22 03:12:28;;;;;;;14.63;13.40;;;;;;;-143.84;91.23;45075.72;5110651;28;20450;-74
2022/08/22 03:15:10;;;;;;;12.70;11.40;;;;;;;-143.84;91.53;45100.47;5110966;28;20474;-74
2022/08/22 03:17:47;;;;;;;11.87;10.77;;;;;;;-143.84;91.79;45083.34;5110674;28;20444;-74
2022/08/22 03:20:19;;;;;;;14.00;12.70;;;;;;;-143.84;91.85;45075.72;5110373;28;20492;-74
2022/08/22 03:22:54;;;;;;;14.23;13.00;;;;;;;-143.84;91.98;45090.97;5110709;28;20427;-75
2022/08/22 03:25:33;;;;;;;16.17;14.53;;;;;;;-143.84;92.29;45079.53;5110361;28;20523;-75
2022/08/22 03:28:06;;;;;;;16.77;15.17;;;;;;;-143.84;92.38;45087.16;5110391;28;20460;-74
2022/08/22 03:30:39;;;;;;;16.97;15.37;;;;;;;-143.84;92.84;45083.34;5110298;28;20442;-74
2022/08/22 03:33:19;;;;;;;16.30;14.70;;;;;;;-143.84;92.91;45083.34;5110315;28;20790;-74
2022/08/22 03:36:01;;;;;;;17.10;15.30;;;;;;;-143.84;93.31;45089.06;5110172;27;20439;-75
2022/08/22 03:38:44;;;;;;;19.73;16.60;;;;;;;-143.84;93.40;45092.88;5110075;28;20443;-74
2022/08/22 03:41:35;;;;;;;17.30;15.60;;;;;;;-143.84;93.45;45079.53;5110109;28;20482;-74
2022/08/22 03:44:31;;;;;;;22.07;17.53;;;;;;;-143.84;93.92;45073.81;5110116;28;20500;-74
2022/08/22 03:47:28;;;;;;;24.03;19.57;;;;;;;-143.84;94.45;45060.50;5109905;28;20450;-74
2022/08/22 03:50:19;;;;;;;22.30;18.33;;;;;;;-143.84;94.75;45085.25;5076004;28;20455;-74
2022/08/22 03:53:36;;;;;;;27.63;21.03;;;;;;;-143.84;95.09;45094.78;5110116;28;20528;-74
2022/08/22 03:56:41;;;;;;;24.07;19.90;;;;;;;-143.84;95.36;45079.53;5109729;28;20462;-72
2022/08/22 03:59:50;;;;;;;27.97;19.77;;;;;;;-143.84;95.76;45108.09;5109731;28;20499;-74
2022/08/22 04:02:53;;;;;;;20.93;18.60;;;;;;;-143.84;95.96;45089.06;5109438;28;20582;-74
2022/08/22 04:05:48;;;;;;;21.57;18.77;;;;;;;-143.84;95.92;45092.88;5068460;28;20442;-74
2022/08/22 04:08:36;;;;;;;25.10;18.07;;;;;;;-143.84;95.58;45081.44;5109874;28;20500;-74
2022/08/22 04:11:37;;;;;;;23.10;19.00;;;;;;;-143.84;95.59;45089.06;5109657;28;20501;-75
2022/08/22 04:14:34;;;;;;;27.17;20.97;;;;;;;-143.84;95.62;45079.53;5109756;28;20439;-73
2022/08/22 04:17:38;;;;;;;22.83;20.30;;;;;;;-143.84;95.42;45052.88;5109244;28;20890;-71
2022/08/22 04:20:19;;;;;;;24.40;20.40;;;;;;;-143.84;94.93;45083.34;5109357;28;20817;-72
2022/08/22 04:23:17;;;;;;;21.83;19.10;;;;;;;-143.84;94.48;45070.00;5107183;28;20554;-72
2022/08/22 04:25:53;;;;;;;21.10;18.80;;;;;;;-143.84;94.01;45066.22;5104439;28;21062;-72
2022/08/22 04:28:28;;;;;;;20.80;18.60;;;;;;;-143.84;93.72;45094.78;5108922;28;20443;-73
2022/08/22 04:31:04;;;;;;;20.40;18.20;;;;;;;-143.84;93.44;45064.31;5109099;28;20442;-73
2022/08/22 04:33:37;;;;;;;19.97;16.20;;;;;;;-143.84;93.46;45092.88;5109396;28;20536;-74
2022/08/22 04:36:13;;;;;;;19.33;16.07;;;;;;;-143.84;93.35;45073.81;5109236;28;20471;-73
2022/08/22 04:38:46;;;;;;;18.10;16.20;;;;;;;-143.84;93.14;45056.69;5109301;28;20442;-73
2022/08/22 04:41:18;;;;;;;15.97;14.50;;;;;;;-143.84;91.94;45054.78;5109191;28;20479;-73
2022/08/22 04:43:50;;;;;;;15.20;13.80;;;;;;;-143.84;90.83;45094.78;5109339;28;20487;-73
2022/08/22 04:46:26;;;;;;;18.00;14.27;;;;;;;-143.84;89.02;45052.88;5109579;28;21088;-73
2022/08/22 04:48:59;;;;;;;16.20;13.53;;;;;;;-143.84;87.16;45039.53;5109258;28;20828;-71
2022/08/22 04:51:34;;;;;;;13.97;12.57;;;;;;;-143.84;85.15;45035.75;5109219;28;20464;-72
2022/08/22 04:54:20;;;;;;;15.23;12.23;;;;;;;-143.84;83.78;45047.16;5108886;28;20430;-73
2022/08/22 04:57:02;;;;;;;13.27;11.87;;;;;;;-143.84;82.64;45070.00;5109313;28;20438;-72
2022/08/22 04:59:31;;;;;;;14.20;12.60;;;;;;;-143.84;82.47;45031.94;5103959;28;20468;-69
2022/08/22 05:02:04;;;;;;;17.90;13.03;;;;;;;-143.84;82.02;45049.06;5109463;28;20528;-69
2022/08/22 05:04:37;;;;;;;13.03;11.83;;;;;;;-143.84;81.62;45035.75;5109386;28;20522;-70
2022/08/22 05:07:07;;;;;;;12.67;11.37;;;;;;;-143.84;81.38;45047.16;5109163;28;20431;-69
2022/08/22 05:09:38;;;;;;;14.77;13.37;;;;;;;-143.84;82.42;45045.25;5108744;28;20500;-71
2022/08/22 05:12:10;;;;;;;12.63;11.50;;;;;;;-143.84;82.83;45043.34;5108645;28;20513;-70
2022/08/22 05:14:41;;;;;;;17.83;11.87;;;;;;;-143.84;82.60;45054.78;5109554;28;20439;-70
2022/08/22 05:17:14;;;;;;;12.23;11.10;;;;;;;-143.84;81.71;45037.66;5109215;28;20435;-69
2022/08/22 05:19:46;;;;;;;13.97;12.57;;;;;;;-143.84;81.90;45035.75;5109509;28;20439;-70
2022/08/22 05:22:17;;;;;;;15.73;13.23;;;;;;;-143.84;82.23;45049.06;5109244;28;20482;-69
2022/08/22 05:24:48;;;;;;;14.30;12.90;;;;;;;-143.84;82.41;45071.91;5113727;28;20480;-69
2022/08/22 05:27:20;;;;;;;17.80;13.50;;;;;;;-143.84;82.52;45071.91;5131892;27;20933;-70
2022/08/22 05:29:50;;;;;;;24.83;13.43;;;;;;;-143.84;82.52;45062.41;5131915;27;20428;-70
2022/08/22 05:32:23;;;;;;;14.77;13.23;;;;;;;-143.84;82.50;45050.97;5132131;27;20434;-70
2022/08/22 05:34:52;;;;;;;14.83;13.47;;;;;;;-143.84;82.59;45039.53;5132455;27;20446;-70
2022/08/22 05:37:24;;;;;;;13.60;12.30;;;;;;;-143.84;82.47;45064.31;5132029;27;20446;-71
2022/08/22 05:39:55;;;;;;;15.67;11.90;;;;;;;-143.84;82.17;45043.34;5131686;27;20999;-72
2022/08/22 05:42:26;;;;;;;13.30;11.93;;;;;;;-143.84;81.79;45039.53;5131815;27;20505;-72
2022/08/22 05:44:55;;;;;;;13.57;12.40;;;;;;;-143.84;81.60;45022.41;5132719;27;20446;-72
2022/08/22 05:47:27;;;;;;;12.57;11.30;;;;;;;-143.84;82.26;45039.53;5132751;27;20445;-72
2022/08/22 05:50:02;;;;;;;12.80;11.57;;;;;;;-143.84;81.74;45049.06;5132895;27;20495;-72
2022/08/22 05:52:42;;;;;;;12.93;11.60;;;;;;;-143.84;82.04;45020.50;5132635;27;20800;-72
2022/08/22 05:55:22;;;;;;;13.73;12.30;;;;;;;-143.84;81.67;45058.59;5132736;27;20943;-72
2022/08/22 05:58:09;;;;;;;13.40;11.80;;;;;;;-143.84;80.90;45037.66;5132743;27;20441;-74
2022/08/22 06:00:41;;;;;;;12.97;11.67;;;;;;;-143.84;80.60;45049.06;5132439;27;20445;-74
2022/08/22 06:03:18;;;;;;;12.67;11.33;;;;;;;-143.84;79.14;45049.06;5132525;27;20841;-74
2022/08/22 06:05:51;;;;;;;11.53;10.37;;;;;;;-143.84;78.77;45039.53;5132720;27;20434;-74
2022/08/22 06:08:23;;;;;;;15.50;10.63;;;;;;;-143.84;78.24;45058.59;5132658;27;20438;-74
2022/08/22 06:10:55;;;;;;;15.80;10.90;;;;;;;-143.84;77.81;45022.41;5131776;27;20450;-74
2022/08/22 06:13:31;;;;;;;13.57;11.53;;;;;;;-143.84;77.42;45039.53;5131236;27;20446;-74
2022/08/22 06:16:08;;;;;;;12.67;11.37;;;;;;;-143.84;76.09;45049.06;5131937;27;21188;-75
2022/08/22 06:18:38;;;;;;;11.13;10.13;;;;;;;-143.84;74.82;45003.38;5131603;27;20438;-74
2022/08/22 06:21:10;;;;;;;10.87;9.97;;;;;;;-143.84;75.30;45012.88;5131807;27;21197;-74
2022/08/22 06:23:41;;;;;;;12.07;10.47;;;;;;;-143.84;74.95;44997.66;5131971;27;20446;-74
2022/08/22 06:26:11;;;;;;;12.50;8.87;;;;;;;-143.84;74.13;45016.69;5131872;27;20526;-74
2022/08/22 06:28:40;;;;;;;9.63;8.73;;;;;;;-143.84;70.92;45001.47;5131867;27;20785;-74
2022/08/22 06:31:14;;;;;;;9.60;8.70;;;;;;;-143.84;69.92;45009.09;5131890;27;20438;-74
2022/08/22 06:33:46;;;;;;;9.50;8.43;;;;;;;-143.84;69.28;45018.59;5131973;27;20438;-74
2022/08/22 06:36:31;;;;;;;9.93;9.13;;;;;;;-143.84;68.28;44974.81;5132195;27;20499;-74
2022/08/22 06:39:11;;;;;;;8.63;7.90;;;;;;;-143.84;65.22;44995.75;5131134;27;20438;-74
2022/08/22 06:41:45;;;;;;;9.73;7.60;;;;;;;-143.84;63.90;44972.91;5131866;27;20573;-74
2022/08/22 06:44:16;;;;;;;9.60;8.67;;;;;;;-143.84;63.34;44961.47;5131530;27;20433;-75
2022/08/22 06:46:46;;;;;;;10.87;7.90;;;;;;;-143.84;61.78;44965.28;5131508;27;20936;-74
2022/08/22 06:49:16;;;;;;;9.03;7.70;;;;;;;-143.84;60.50;44974.81;5131588;27;20445;-73
2022/08/22 06:51:45;;;;;;;10.60;8.00;;;;;;;-143.84;58.43;44950.06;5131511;27;20452;-73
2022/08/22 06:54:18;;;;;;;13.33;8.07;;;;;;;-143.84;58.42;44948.16;5131365;27;20434;-74
2022/08/22 06:56:51;;;;;;;7.73;7.10;;;;;;;-143.84;54.70;44925.31;5131524;27;20438;-75
2022/08/22 06:59:23;;;;;;;7.57;6.13;;;;;;;-143.84;51.62;44942.44;5131617;27;20807;-74
2022/08/22 07:01:54;;;;;;;7.60;6.87;;;;;;;-143.84;51.67;44911.97;5131163;27;20474;-75
2022/08/22 07:04:26;;;;;;;8.93;7.87;;;;;;;-143.84;53.13;44917.69;5131403;27;20491;-75
2022/08/22 07:06:55;;;;;;;7.50;6.77;;;;;;;-143.84;52.35;44913.88;5131049;27;20442;-75
2022/08/22 07:09:26;;;;;;;7.30;6.47;;;;;;;-143.84;52.72;44925.31;5131088;27;20438;-73
2022/08/22 07:11:56;;;;;;;8.47;7.67;;;;;;;-143.84;51.11;44919.59;5131263;27;20526;-73
2022/08/22 07:14:31;;;;;;;14.90;6.20;;;;;;;-143.84;50.55;44951.97;5131430;27;20503;-73
2022/08/22 07:17:00;;;;;;;14.30;6.80;;;;;;;-143.84;51.51;44929.09;5131281;27;20430;-73
2022/08/22 07:19:31;;;;;;;6.97;6.37;;;;;;;-143.84;52.51;44934.81;5131072;27;20784;-73
2022/08/22 07:22:02;;;;;;;7.13;6.03;;;;;;;-143.84;52.99;44921.50;5130744;27;20478;-73
2022/08/22 07:24:32;;;;;;;7.27;6.57;;;;;;;-143.84;51.94;44942.44;5131172;27;20931;-73
2022/08/22 07:27:07;;;;;;;11.40;5.90;;;;;;;-143.84;52.98;44955.75;5130704;27;21003;-73
2022/08/22 07:29:46;;;;;;;8.27;7.40;;;;;;;-143.84;54.55;44942.44;5130937;27;20495;-73
2022/08/22 07:32:18;;;;;;;8.73;7.87;;;;;;;-143.84;53.91;44929.09;5130645;27;20781;-74
2022/08/22 07:35:10;;;;;;;16.27;6.80;;;;;;;-143.84;54.04;44885.31;5130576;27;20449;-75
2022/08/22 07:37:59;;;;;;;11.70;8.37;;;;;;;-143.84;52.45;44940.53;5130531;27;20448;-73
2022/08/22 07:40:34;;;;;;;9.03;7.63;;;;;;;-143.84;52.80;44915.78;5130531;27;20434;-72
2022/08/22 07:43:09;;;;;;;7.83;7.23;;;;;;;-143.84;52.80;44934.81;5130846;27;20477;-72
2022/08/22 07:45:40;;;;;;;10.73;7.20;;;;;;;-143.84;53.12;44913.88;5130507;27;20444;-72
2022/08/22 07:48:20;;;;;;;7.67;6.87;;;;;;;-143.84;51.78;44925.31;5130606;27;20916;-72
2022/08/22 07:50:59;;;;;;;8.50;6.13;;;;;;;-143.84;51.17;44915.78;5130309;27;20441;-72
2022/08/22 07:53:34;;;;;;;6.67;6.03;;;;;;;-143.84;49.26;44931.00;5130523;27;20809;-72
2022/08/22 07:56:05;;;;;;;6.23;5.70;;;;;;;-143.84;48.77;44925.31;5130628;27;20480;-68
2022/08/22 07:58:38;;;;;;;9.03;6.50;;;;;;;-143.84;47.77;44929.09;5130788;27;21000;-68
2022/08/22 08:01:08;;;;;;;7.20;6.50;;;;;;;-143.84;49.01;44931.00;5121665;27;20445;-72
2022/08/22 08:03:37;;;;;;;7.33;5.67;;;;;;;-143.84;49.25;44953.88;5130427;27;20485;-77
2022/08/22 08:06:07;;;;;;;6.80;6.13;;;;;;;-143.84;49.84;44938.63;5129993;27;20825;-76
2022/08/22 08:08:40;;;;;;;7.23;6.60;;;;;;;-143.84;50.47;44927.19;5127068;27;20442;-77
2022/08/22 08:11:10;;;;;;;9.03;6.97;;;;;;;-143.84;51.83;44946.25;5126844;27;20496;-71
2022/08/22 08:13:41;;;;;;;6.53;5.90;;;;;;;-143.84;51.17;44934.81;5129288;27;20453;-72
2022/08/22 08:16:16;;;;;;;7.07;6.47;;;;;;;-143.84;51.09;44946.25;5128000;27;20445;-72
2022/08/22 08:18:47;;;;;;;8.83;6.97;;;;;;;-143.84;51.27;44917.69;5127263;27;20547;-72
2022/08/22 08:21:27;;;;;;;9.73;7.10;;;;;;;-143.84;52.33;44950.06;5131985;27;20443;-72
2022/08/22 08:23:55;;;;;;;7.80;7.20;;;;;;;-143.84;53.91;44942.44;5128741;27;20490;-71
2022/08/22 08:26:30;;;;;;;9.00;7.97;;;;;;;-143.84;55.05;44934.81;5118697;27;20493;-73
2022/08/22 08:28:58;;;;;;;11.07;8.70;;;;;;;-143.84;57.69;44957.66;5126885;27;20442;-74
2022/08/22 08:31:30;;;;;;;10.80;7.57;;;;;;;-143.84;55.51;44950.06;5116693;27;20984;-74
2022/08/22 08:34:03;;;;;;;8.37;7.30;;;;;;;-143.84;54.22;44910.06;5116268;27;20570;-74
2022/08/22 08:36:49;;;;;;;6.53;5.93;;;;;;;-143.84;51.78;44953.88;5130569;27;20449;-74
2022/08/22 08:39:23;;;;;;;13.17;5.70;;;;;;;-143.84;49.01;44950.06;5113187;27;20459;-74
2022/08/22 08:42:23;;;;;;;7.40;6.63;;;;;;;-143.84;52.81;44927.19;5112482;27;20444;-74
2022/08/22 08:45:09;;;;;;;13.87;7.10;;;;;;;-143.84;54.97;44925.31;5110970;27;20847;-72
2022/08/22 08:47:48;;;;;;;9.57;7.17;;;;;;;-143.84;54.65;44887.22;5126032;27;20457;-72
2022/08/22 08:50:38;;;;;;;8.63;7.20;;;;;;;-143.84;53.49;44906.25;5147047;27;20837;-73
2022/08/22 08:53:43;;;;;;;7.70;6.40;;;;;;;-143.84;47.92;44866.28;5117727;27;20443;-74
2022/08/22 08:56:18;;;;;;;6.90;5.80;;;;;;;-143.84;46.67;44883.41;5106434;27;20477;-74
2022/08/22 08:58:59;;;;;;;6.10;5.50;;;;;;;-143.84;45.43;44871.97;5110246;27;20450;-74
2022/08/22 09:02:00;;;;;;;8.53;6.53;;;;;;;-143.84;46.35;44868.19;5131521;27;20543;-73
2022/08/22 09:04:44;;;;;;;6.80;6.17;;;;;;;-143.84;44.88;44860.56;5149749;27;20444;-74
2022/08/22 09:07:57;;;;;;;12.10;4.80;;;;;;;-143.84;45.67;44891.03;5124779;27;20449;-74
2022/08/22 09:10:38;;;;;;;8.20;5.30;;;;;;;-143.84;43.07;44873.88;5146404;27;20453;-74
2022/08/22 09:13:28;;;;;;;6.47;5.90;;;;;;;-143.84;43.07;44864.38;5129311;27;20467;-72
2022/08/22 09:16:13;;;;;;;7.23;5.63;;;;;;;-143.84;42.28;44852.94;5120588;27;20526;-73
2022/08/22 09:19:12;;;;;;;6.20;5.53;;;;;;;-143.84;41.82;44877.69;5138498;27;20505;-74
2022/08/22 09:22:04;;;;;;;5.03;4.63;;;;;;;-143.84;41.08;44870.09;5126434;27;20445;-74
2022/08/22 09:25:17;;;;;;;9.77;5.47;;;;;;;-143.84;42.20;44864.38;5130225;27;20546;-79
2022/08/22 09:27:54;;;;;;;5.43;4.93;;;;;;;-143.84;42.05;44866.28;5128093;27;20447;-79
2022/08/22 09:30:25;;;;;;;7.07;5.30;;;;;;;-143.84;41.37;44858.66;5126308;27;20446;-76
2022/08/22 09:32:58;;;;;;;5.87;5.37;;;;;;;-143.84;42.56;44856.75;5126217;27;20445;-72
2022/08/22 09:35:34;;;;;;;7.60;5.30;;;;;;;-143.84;42.03;44873.88;5122884;27;20519;-72
2022/08/22 09:38:25;;;;;;;6.80;5.27;;;;;;;-143.84;43.70;44877.69;5134018;27;21257;-69
2022/08/22 09:41:11;;;;;;;6.33;4.73;;;;;;;-143.84;44.16;44883.41;5135442;27;20466;-69
2022/08/22 09:43:44;;;;;;;6.80;5.90;;;;;;;-143.84;46.04;44889.13;5124130;27;20486;-71
2022/08/22 09:46:17;;;;;;;10.27;5.37;;;;;;;-143.84;48.48;44873.88;5123131;27;20465;-72
2022/08/22 09:48:58;;;;;;;10.97;6.10;;;;;;;-143.84;47.43;44908.16;5129919;27;20444;-70
2022/08/22 09:51:36;;;;;;;8.03;5.50;;;;;;;-143.84;46.93;44911.97;5137982;27;20455;-70
2022/08/22 09:54:26;;;;;;;14.13;5.00;;;;;;;-143.84;45.87;44919.59;5126419;27;20454;-77
2022/08/22 09:57:17;;;;;;;5.20;4.70;;;;;;;-143.84;45.26;44929.09;5140494;27;20485;-76
2022/08/22 10:00:08;;;;;;;8.20;5.27;;;;;;;-143.84;44.84;44902.44;5120363;27;20458;-70
2022/08/22 10:02:41;;;;;;;6.53;5.50;;;;;;;-143.84;47.06;44911.97;5125070;27;20453;-71
2022/08/22 10:05:16;;;;;;;9.43;5.70;;;;;;;-143.84;47.43;44910.06;5141068;27;20455;-69
2022/08/22 10:08:08;;;;;;;20.13;6.97;;;;;;;-143.84;47.25;44875.78;5120744;27;20446;-79
2022/08/22 10:10:54;;;;;;;10.43;5.40;;;;;;;-143.84;47.87;44896.75;5134081;27;20499;-77
2022/08/22 10:13:45;;;;;;;8.70;5.03;;;;;;;-143.84;48.31;44911.97;5121624;27;20513;-79
2022/08/22 10:16:26;;;;;;;12.13;5.60;;;;;;;-143.84;47.37;44925.31;5114325;27;20451;-76
2022/08/22 10:19:11;;;;;;;12.97;5.63;;;;;;;-143.84;46.97;44908.16;5112381;27;20990;-73
2022/08/22 10:21:46;;;;;;;12.60;5.87;;;;;;;-143.84;46.79;44908.16;5119482;27;20453;-73
2022/08/22 10:24:22;;;;;;;8.10;5.40;;;;;;;-143.84;48.51;44919.59;5120810;27;20482;-74
2022/08/22 10:26:53;;;;;;;6.47;5.93;;;;;;;-143.84;48.83;44921.50;5129072;27;21314;-78
2022/08/22 10:29:51;;;;;;;11.60;6.60;;;;;;;-143.84;49.09;44917.69;5123941;27;20435;-77
2022/08/22 10:32:30;;;;;;;18.33;6.63;;;;;;;-143.84;49.05;44915.78;5125282;27;20461;-78
2022/08/22 10:35:03;;;;;;;14.93;6.50;;;;;;;-143.84;49.96;44931.00;5125588;27;20453;-78
2022/08/22 10:37:36;;;;;;;10.10;6.70;;;;;;;-143.84;49.47;44894.84;5121775;27;20435;-78
2022/08/22 10:40:08;;;;;;;12.17;6.83;;;;;;;-143.84;50.08;44896.75;5128797;27;20533;-77
2022/08/22 10:49:32;;;;;;;16.80;7.27;;;;;;;-143.84;48.81;44915.78;5129189;27;20443;-71
2022/08/22 10:52:04;;;;;;;13.73;7.80;;;;;;;-143.84;49.34;44892.94;5131416;27;20444;-72
2022/08/22 10:54:47;;;;;;;9.47;6.93;;;;;;;-143.84;49.18;44891.03;5135468;27;20469;-71
2022/08/22 10:57:35;;;;;;;19.03;7.20;;;;;;;-143.84;49.80;44900.53;5126692;27;20448;-71
2022/08/22 11:00:11;;;;;;;10.93;8.10;;;;;;;-143.84;49.45;44877.69;5125138;27;20468;-70
2022/08/22 11:02:54;;;;;;;8.50;7.10;;;;;;;-143.84;48.70;44904.34;5136602;27;20445;-70
2022/08/22 11:05:41;;;;;;;14.13;7.03;;;;;;;-143.84;50.16;44923.41;5126484;27;20447;-70
2022/08/22 11:08:24;;;;;;;12.17;8.10;;;;;;;-143.84;51.56;44906.25;5130574;27;20462;-70
2022/08/22 11:11:05;;;;;;;14.80;8.30;;;;;;;-143.84;51.43;44915.78;5130862;27;20447;-70
2022/08/22 11:13:40;;;;;;;13.97;7.33;;;;;;;-143.84;51.66;44906.25;5130456;27;20633;-70
2022/08/22 11:16:29;;;;;;;11.27;7.83;;;;;;;-143.84;50.38;44900.53;5135452;27;20452;-70
2022/08/22 11:19:21;;;;;;;19.63;7.97;;;;;;;-143.84;52.84;44902.44;5126165;27;20451;-70
2022/08/22 11:22:00;;;;;;;8.60;6.87;;;;;;;-143.84;53.80;44879.59;5104190;27;20535;-70
2022/08/22 11:25:09;;;;;;;10.60;7.70;;;;;;;-143.84;53.20;44913.88;5129155;27;20482;-69
2022/08/22 11:27:46;;;;;;;10.50;6.47;;;;;;;-143.84;54.22;44883.41;5123831;27;20451;-70
2022/08/22 11:30:17;;;;;;;12.60;6.67;;;;;;;-143.84;54.23;44871.97;5132732;27;20480;-70
2022/08/22 11:33:04;;;;;;;16.73;6.37;;;;;;;-143.84;54.97;44913.88;5128109;27;20532;-70
2022/08/22 11:35:39;;;;;;;13.97;6.23;;;;;;;-143.84;54.41;44919.59;5132844;27;20448;-70
2022/08/22 11:38:18;;;;;;;9.37;5.90;;;;;;;-143.84;53.58;44892.94;5116284;27;21040;-70
2022/08/22 11:41:00;;;;;;;19.07;5.97;;;;;;;-143.84;54.62;44908.16;5129572;27;20446;-70
2022/08/22 11:43:47;;;;;;;16.83;5.77;;;;;;;-143.84;55.74;44913.88;5131691;27;20485;-70
2022/08/22 11:46:21;;;;;;;11.97;6.83;;;;;;;-143.84;54.92;44921.50;5134208;27;20990;-70
2022/08/22 11:49:05;;;;;;;12.17;5.20;;;;;;;-143.84;55.16;44921.50;5121395;27;20450;-70
2022/08/22 11:51:56;;;;;;;10.27;6.10;;;;;;;-143.84;56.55;44919.59;5126691;27;20446;-70
2022/08/22 11:54:34;;;;;;;10.07;6.07;;;;;;;-143.84;57.11;44917.69;5116864;27;20462;-70
2022/08/22 11:57:07;;;;;;;12.80;6.13;;;;;;;-143.84;57.56;44902.44;5114740;27;20931;-70
2022/08/22 11:59:55;;;;;;;11.40;6.23;;;;;;;-143.84;58.01;44908.16;5114160;27;20554;-70
2022/08/22 12:02:30;;;;;;;13.40;5.97;;;;;;;-143.84;57.82;44921.50;5124223;27;20445;-71
2022/08/22 12:05:04;;;;;;;10.50;5.37;;;;;;;-143.84;55.54;44951.97;5134929;27;20563;-71
2022/08/22 12:07:37;;;;;;;17.53;6.30;;;;;;;-143.84;55.14;44919.59;5131985;27;20517;-70
2022/08/22 12:10:13;;;;;;;19.03;5.47;;;;;;;-143.84;54.09;44929.09;5124739;27;20497;-70
2022/08/22 12:12:55;;;;;;;19.23;7.23;;;;;;;-143.84;53.88;44931.00;5132548;27;20992;-70
2022/08/22 12:15:25;;;;;;;17.60;6.27;;;;;;;-143.84;55.70;44906.25;5133340;27;20487;-70